Melbourne, Victoria

2:31 AM AEDT on January 31, 2015 (GMT +1100)
AO-SC2 | Change Station
CLOSE
Current Station
Personal Weather Station
Location: Melbourne, VICTORIA
Elevation: 39 ft
Nearby Weather Stations

Elev 39 ft 37.82 °S, 144.98 °E | Updated 6 minutes ago

Mostly Cloudy
Mostly Cloudy
60.6 °F
Feels Like 60.6 °F
N
1.0
Wind Variable Wind from ENE
Gusts 5.0 mph

Today
High -- | Low -- °F
--% Chance of Precip.
Yesterday
High -- | Low -- °F
Precip. -- in
6:31 AM 8:34 PM
Waxing Gibbous, 83% visible
Pressure 29.89 in
Visibility 6.2 miles
Clouds Few 2400 ft
Mostly Cloudy 3800 ft
Dew Point 52 °F
Humidity 72%
Rainfall 0.00 in
Snow Depth Not available.
UV 0 out of 12
Pollen Not available.
Air Quality Not available.
Flu Activity Not available.
METAR YMML 301500Z 25009KT 9999 FEW024 BKN038 13/09 Q1012 NOSIG

More Conditions Fewer Conditions

Pressure 29.89 in
Visibility 6.2 miles
Clouds Few 2400 ft
Mostly Cloudy 3800 ft
Dew Point 52 °F
Humidity 72%
Rainfall 0.00 in
Snow Depth Not available.
UV 0 out of 12
Pollen Not available.
Air Quality Not available.
Flu Activity Not available.
METAR YMML 301500Z 25009KT 9999 FEW024 BKN038 13/09 Q1012 NOSIG

More Conditions Fewer Conditions

10-Day Weather Forecast

Almanac

Astronomy

Jan. 31, 2015 Rise Set
Actual Time
Civil Twilight
Nautical Twilight
Astronomical Twilight
Moon
Length of Visible Light
Length of Day
Tomorrow will be .
, % of the Moon is Illuminated

Today's Extremes

Country Highs Country Lows

Community

WunderPhotos

Upload Photos

1,791,791 photos uploaded!

WunderBlogs® & News

Nearby

Air Quality

  Air Quality AQ Index Pollutant
Not available.

Snow Depth

Station Depth Elevation

Earthquake Activity

City Distance Mag. Time & Date
Minimum magnitude displayed is 2.5.

Coastal Water Temperatures

Place Temperature

Nearby Weather Stations